Time;durP1;ratioP1;P1;durP2;ratioP2;P2;SDS_P1;SDS_P2;PMS_P1;PMS_P2;Temp;Humidity;BMP_temperature;BMP_pressure;BME280_temperature;BME280_humidity;BME280_pressure;Samples;Min_cycle;Max_cycle;Signal;HPM_P1;HPM_P2
2022/02/07 00:00:35;;;;;;;0.50;0.40;;;2.50;99.90;;;;;;4975845;28;20434;-75
2022/02/07 00:05:52;;;;;;;0.30;0.30;;;2.40;99.90;;;;;;4952864;28;20450;-75
2022/02/07 00:08:18;;;;;;;0.30;0.30;;;2.40;99.90;;;;;;4975850;28;20450;-75
2022/02/07 00:10:44;;;;;;;0.30;0.30;;;2.40;99.90;;;;;;4975493;28;20268;-75
2022/02/07 00:13:09;;;;;;;0.30;0.30;;;2.30;99.90;;;;;;4975673;28;20255;-75
2022/02/07 00:15:35;;;;;;;1.40;0.30;;;2.30;99.90;;;;;;4975627;28;20203;-76
2022/02/07 00:18:03;;;;;;;0.53;0.30;;;2.30;99.90;;;;;;4974523;28;20189;-75
2022/02/07 00:20:29;;;;;;;0.30;0.30;;;2.40;99.90;;;;;;4975379;28;20490;-75
2022/02/07 00:22:55;;;;;;;0.40;0.30;;;2.40;99.90;;;;;;4975237;28;20414;-75
2022/02/07 00:25:21;;;;;;;0.30;0.30;;;2.50;99.90;;;;;;4975481;28;20187;-76
2022/02/07 00:27:47;;;;;;;0.40;0.40;;;2.60;99.90;;;;;;4975522;28;20285;-76
2022/02/07 00:30:15;;;;;;;0.60;0.50;;;2.70;99.90;;;;;;4975418;28;20813;-76
2022/02/07 00:32:41;;;;;;;0.30;0.30;;;2.80;99.90;;;;;;4975206;28;20516;-76
2022/02/07 00:35:10;;;;;;;0.40;0.40;;;2.90;99.90;;;;;;4975168;28;20426;-75
2022/02/07 00:37:38;;;;;;;0.40;0.30;;;2.90;99.90;;;;;;4975252;28;20420;-76
2022/02/07 00:42:50;;;;;;;1.23;0.40;;;3.00;99.90;;;;;;4975350;28;20437;-76
2022/02/07 00:45:25;;;;;;;0.70;0.50;;;3.00;99.90;;;;;;4975311;28;20482;-75
2022/02/07 00:47:51;;;;;;;0.73;0.60;;;3.00;99.90;;;;;;4975050;28;20748;-76
2022/02/07 00:50:16;;;;;;;0.80;0.30;;;3.00;99.90;;;;;;4975145;28;20500;-76
2022/02/07 00:52:42;;;;;;;1.03;0.40;;;3.00;99.90;;;;;;4974912;28;20870;-75
2022/02/07 00:55:08;;;;;;;1.00;0.43;;;2.90;99.90;;;;;;4973886;28;20181;-75
2022/02/07 00:57:33;;;;;;;0.40;0.40;;;3.00;99.90;;;;;;4975080;28;20229;-75
2022/02/07 00:59:59;;;;;;;0.30;0.30;;;3.00;99.90;;;;;;4974715;28;20209;-75
2022/02/07 05:32:28;;;;;;;4.77;0.70;;;1.50;99.90;;;;;;5235359;23;21021;-74
2022/02/07 05:34:54;;;;;;;2.50;0.80;;;1.50;99.90;;;;;;4992044;28;20426;-77
2022/02/07 05:37:21;;;;;;;4.43;0.80;;;1.50;99.90;;;;;;4993715;28;20252;-76
2022/02/07 05:39:51;;;;;;;5.60;0.90;;;1.50;99.90;;;;;;4993659;28;20827;-77
2022/02/07 05:42:17;;;;;;;5.13;0.80;;;1.60;99.90;;;;;;4992428;28;20457;-77
2022/02/07 05:44:45;;;;;;;1.10;1.10;;;1.60;99.90;;;;;;4993795;28;20438;-77
2022/02/07 05:47:11;;;;;;;7.93;1.17;;;1.50;99.90;;;;;;4993539;28;20202;-74
2022/02/07 05:49:37;;;;;;;7.03;0.70;;;1.60;99.90;;;;;;4993654;28;20450;-74
2022/02/07 05:52:02;;;;;;;7.23;0.67;;;1.60;99.90;;;;;;4993581;28;20195;-74
2022/02/07 05:54:28;;;;;;;2.67;0.87;;;1.60;99.90;;;;;;4993360;28;20194;-74
2022/02/07 05:56:53;;;;;;;3.50;0.70;;;1.60;99.90;;;;;;4993560;28;20214;-74
2022/02/07 05:59:19;;;;;;;3.90;0.80;;;1.70;99.90;;;;;;4992980;28;20191;-74
2022/02/07 06:01:44;;;;;;;6.90;0.83;;;1.70;99.90;;;;;;4991584;28;20205;-75
2022/02/07 06:04:10;;;;;;;3.70;1.00;;;1.70;99.90;;;;;;4992938;28;20263;-75
2022/02/07 06:06:35;;;;;;;0.87;0.87;;;1.70;99.90;;;;;;4993092;28;20603;-74
2022/02/07 06:09:01;;;;;;;1.33;0.50;;;1.70;99.90;;;;;;4993004;28;20204;-74
2022/02/07 06:11:27;;;;;;;5.43;0.80;;;1.70;99.90;;;;;;4993002;28;20195;-74
2022/02/07 06:13:52;;;;;;;0.57;0.57;;;1.80;99.90;;;;;;4993009;28;20763;-74
2022/02/07 06:16:18;;;;;;;4.27;1.17;;;1.80;99.90;;;;;;4992829;28;20565;-74
2022/02/07 06:18:48;;;;;;;4.60;1.40;;;1.80;99.90;;;;;;4993157;28;20183;-74
2022/02/07 06:21:15;;;;;;;5.00;0.70;;;1.80;99.90;;;;;;4992755;28;20625;-74
2022/02/07 06:23:41;;;;;;;2.77;1.03;;;1.90;99.90;;;;;;4992940;28;20394;-75
2022/02/07 06:26:06;;;;;;;5.47;1.63;;;1.90;99.90;;;;;;4991361;28;20433;-74
2022/02/07 06:28:32;;;;;;;4.03;1.17;;;1.90;99.90;;;;;;4991707;28;20183;-75
2022/02/07 06:30:57;;;;;;;3.97;0.83;;;2.00;99.90;;;;;;4992293;28;20211;-74
2022/02/07 06:33:23;;;;;;;2.27;0.80;;;2.00;99.90;;;;;;4992372;28;20266;-74
2022/02/07 06:35:49;;;;;;;4.00;1.23;;;2.00;99.90;;;;;;4992624;28;20203;-73
2022/02/07 06:38:15;;;;;;;1.80;0.70;;;2.00;99.90;;;;;;4991812;28;20603;-75
2022/02/07 06:40:41;;;;;;;7.30;0.90;;;2.00;99.90;;;;;;4992345;28;20484;-72
2022/02/07 06:43:06;;;;;;;2.93;0.80;;;2.00;99.90;;;;;;4992198;28;20179;-72
2022/02/07 06:45:32;;;;;;;1.43;0.63;;;2.10;99.90;;;;;;4992576;28;20246;-74
2022/02/07 06:47:57;;;;;;;1.13;0.67;;;2.10;99.90;;;;;;4992361;28;20243;-73
2022/02/07 06:50:23;;;;;;;3.47;1.00;;;2.20;99.90;;;;;;4992027;28;20270;-74
2022/02/07 06:52:49;;;;;;;1.60;0.70;;;2.20;99.90;;;;;;4992315;28;20558;-72
2022/02/07 06:55:14;;;;;;;3.23;0.90;;;2.20;99.90;;;;;;4992535;28;20193;-74
2022/02/07 06:57:40;;;;;;;3.70;0.80;;;2.30;99.90;;;;;;4992504;28;20675;-73
2022/02/07 07:00:09;;;;;;;1.10;0.80;;;2.30;99.90;;;;;;4991922;28;20838;-72
2022/02/07 07:02:35;;;;;;;2.10;0.80;;;2.30;99.90;;;;;;4992286;28;20290;-72
2022/02/07 07:05:08;;;;;;;4.73;0.83;;;2.30;99.90;;;;;;4992025;28;20481;-73
2022/02/07 07:07:34;;;;;;;5.57;1.60;;;2.30;99.90;;;;;;4992400;28;20199;-73
2022/02/07 07:09:59;;;;;;;4.63;1.07;;;2.30;99.90;;;;;;4991937;28;20835;-74
2022/02/07 07:12:26;;;;;;;3.00;0.77;;;2.30;99.90;;;;;;4991978;28;20196;-73
2022/02/07 07:15:03;;;;;;;5.90;0.83;;;2.30;99.90;;;;;;4992036;28;20185;-73
2022/02/07 07:17:29;;;;;;;7.20;1.03;;;2.30;99.90;;;;;;4992204;28;20496;-73
2022/02/07 07:19:54;;;;;;;6.37;1.23;;;2.30;99.90;;;;;;4991989;28;20457;-73
2022/02/07 07:22:20;;;;;;;3.50;1.03;;;2.30;99.90;;;;;;4991989;28;20924;-73
2022/02/07 07:24:45;;;;;;;4.70;1.03;;;2.30;99.90;;;;;;4992393;28;20194;-74
2022/02/07 07:27:13;;;;;;;3.67;1.93;;;2.30;99.90;;;;;;4991852;28;20174;-74
2022/02/07 07:29:42;;;;;;;4.67;1.23;;;2.30;99.90;;;;;;4992056;28;20267;-73
2022/02/07 07:32:08;;;;;;;7.80;1.00;;;2.40;99.90;;;;;;4991841;28;20858;-73
2022/02/07 07:34:35;;;;;;;5.33;1.03;;;2.40;99.90;;;;;;4991889;28;20395;-73
2022/02/07 07:37:00;;;;;;;8.03;1.43;;;2.50;99.90;;;;;;4991748;28;20397;-73
2022/02/07 07:39:26;;;;;;;5.50;1.67;;;2.60;99.90;;;;;;4991752;28;20882;-72
2022/02/07 07:41:52;;;;;;;4.00;1.07;;;2.70;99.90;;;;;;4991858;28;20252;-73
2022/02/07 07:44:21;;;;;;;2.13;0.70;;;2.80;99.90;;;;;;4991530;28;20616;-74
2022/02/07 07:46:52;;;;;;;3.80;0.90;;;2.90;99.90;;;;;;4992790;28;20408;-73
2022/02/07 07:49:29;;;;;;;4.20;0.90;;;3.20;99.90;;;;;;4995513;28;20433;-71
2022/02/07 07:51:59;;;;;;;5.10;1.60;;;3.80;99.90;;;;;;4995302;28;20430;-72
2022/02/07 08:02:38;;;;;;;4.17;1.17;;;8.00;99.90;;;;;;4995459;28;20795;-72
2022/02/07 08:05:13;;;;;;;3.40;1.00;;;8.30;99.90;;;;;;4994957;28;20417;-72
2022/02/07 08:07:40;;;;;;;5.43;1.07;;;8.70;99.90;;;;;;4995256;28;20180;-72
2022/02/07 08:12:34;;;;;;;5.80;1.20;;;9.10;99.90;;;;;;4995239;28;20807;-72
2022/02/07 08:15:00;;;;;;;1.90;0.87;;;9.10;99.90;;;;;;4994875;28;20179;-72
2022/02/07 08:17:28;;;;;;;4.40;0.90;;;9.30;99.90;;;;;;4995011;28;20442;-72
2022/02/07 08:19:54;;;;;;;3.53;0.83;;;9.20;99.90;;;;;;4994962;28;20647;-72
2022/02/07 08:22:23;;;;;;;3.47;2.80;;;8.60;99.90;;;;;;4994730;28;20530;-73
2022/02/07 08:24:49;;;;;;;10.37;1.77;;;8.20;99.90;;;;;;4994766;28;20266;-72
2022/02/07 08:27:15;;;;;;;5.90;1.70;;;8.30;99.90;;;;;;4994746;28;20504;-72
2022/02/07 08:29:41;;;;;;;4.77;1.93;;;8.20;99.90;;;;;;4994753;28;20627;-72
2022/02/07 08:32:06;;;;;;;1.67;1.20;;;8.20;99.90;;;;;;4994345;28;20550;-72
2022/02/07 08:34:33;;;;;;;5.87;1.70;;;8.20;99.90;;;;;;4994715;28;20187;-72
2022/02/07 08:37:02;;;;;;;5.90;1.13;;;7.80;99.90;;;;;;4994600;28;20533;-72
2022/02/07 08:39:28;;;;;;;7.67;1.00;;;7.40;99.90;;;;;;4994520;28;20426;-72
2022/02/07 08:41:53;;;;;;;4.20;1.13;;;7.10;99.90;;;;;;4994444;28;20452;-72
2022/02/07 08:44:19;;;;;;;2.20;0.83;;;7.00;99.90;;;;;;4994225;28;20834;-72
2022/02/07 08:46:44;;;;;;;2.93;1.13;;;6.70;99.90;;;;;;4993156;28;20586;-72
2022/02/07 08:49:10;;;;;;;2.80;1.40;;;6.60;99.90;;;;;;4993300;28;20182;-73
2022/02/07 08:51:36;;;;;;;7.13;1.70;;;6.60;99.90;;;;;;4994310;28;20269;-73
2022/02/07 08:54:05;;;;;;;4.70;1.60;;;6.90;99.90;;;;;;4994264;28;20214;-72
2022/02/07 08:59:29;;;;;;;1.73;0.70;;;6.30;99.90;;;;;;4966467;28;20938;-71
2022/02/07 09:02:13;;;;;;;3.10;1.20;;;5.80;99.90;;;;;;4993514;28;21117;-72
2022/02/07 09:07:15;;;;;;;8.43;1.30;;;5.30;99.90;;;;;;4992756;28;20436;-73
2022/02/07 09:09:43;;;;;;;7.60;1.07;;;5.30;99.90;;;;;;4994423;28;20500;-73
2022/02/07 09:12:10;;;;;;;1.33;0.90;;;5.10;99.90;;;;;;4992630;28;20455;-72
2022/02/07 09:14:43;;;;;;;5.10;0.90;;;5.10;99.90;;;;;;4993814;28;20403;-72
2022/02/07 09:17:10;;;;;;;6.80;1.80;;;5.00;99.90;;;;;;4994033;28;20448;-72
2022/02/07 09:19:36;;;;;;;2.30;0.87;;;5.20;99.90;;;;;;4994196;28;20423;-72
2022/02/07 09:22:04;;;;;;;4.37;1.40;;;5.20;99.90;;;;;;4993975;28;20953;-72
2022/02/07 09:24:30;;;;;;;3.60;1.00;;;5.30;99.90;;;;;;4993846;28;20446;-72
2022/02/07 09:26:56;;;;;;;5.97;1.20;;;5.20;99.90;;;;;;4994014;28;20394;-72
2022/02/07 09:29:22;;;;;;;3.47;0.90;;;5.10;99.90;;;;;;4993783;28;20859;-72
2022/02/07 09:31:48;;;;;;;5.03;1.30;;;5.10;99.90;;;;;;4993647;28;20221;-72
2022/02/07 09:34:14;;;;;;;3.90;1.33;;;5.00;99.90;;;;;;4993520;28;20411;-72
2022/02/07 09:36:39;;;;;;;2.97;1.10;;;4.90;99.90;;;;;;4993833;28;20522;-72
2022/02/07 09:39:05;;;;;;;3.63;1.30;;;5.00;99.90;;;;;;4993526;28;20182;-72
2022/02/07 09:41:33;;;;;;;4.20;1.73;;;5.10;99.90;;;;;;4993429;28;20252;-72
2022/02/07 09:44:02;;;;;;;2.93;1.03;;;5.20;99.90;;;;;;4993540;28;20192;-72
2022/02/07 09:46:43;;;;;;;1.27;0.87;;;5.30;99.90;;;;;;4993544;28;20423;-72
2022/02/07 09:49:10;;;;;;;5.63;1.17;;;5.30;99.90;;;;;;4993523;28;20413;-72
2022/02/07 09:51:35;;;;;;;1.80;1.00;;;5.30;99.90;;;;;;4993514;28;20422;-71
2022/02/07 09:54:01;;;;;;;5.80;1.10;;;5.30;99.90;;;;;;4993178;28;20418;-72
2022/02/07 09:56:26;;;;;;;3.77;1.10;;;5.30;99.90;;;;;;4993485;28;20179;-72
2022/02/07 09:58:53;;;;;;;6.00;1.03;;;5.40;99.90;;;;;;4993428;28;20185;-71
2022/02/07 10:01:28;;;;;;;6.43;1.07;;;5.50;99.90;;;;;;4992759;28;20248;-71
2022/02/07 10:04:01;;;;;;;5.23;2.17;;;5.50;99.90;;;;;;4993242;28;20418;-71
2022/02/07 10:06:48;;;;;;;11.97;1.40;;;5.50;99.90;;;;;;4993242;28;20430;-72
2022/02/07 10:12:08;;;;;;;6.63;1.50;;;5.50;99.90;;;;;;4993201;28;20436;-72
2022/02/07 10:14:54;;;;;;;4.07;1.20;;;5.70;99.90;;;;;;4992983;28;20423;-72
2022/02/07 10:17:44;;;;;;;7.10;1.63;;;5.90;99.90;;;;;;4992952;28;20799;-71
2022/02/07 10:20:57;;;;;;;10.57;1.83;;;6.30;99.90;;;;;;4992595;28;20458;-72
2022/02/07 10:46:03;;;;;;;4.33;1.00;;;8.70;99.90;;;;;;4992923;28;20407;-72
2022/02/07 10:48:34;;;;;;;6.43;1.50;;;8.40;99.90;;;;;;4993175;28;20411;-73
2022/02/07 10:51:11;;;;;;;5.63;1.10;;;7.80;99.90;;;;;;4992882;28;20913;-72
2022/02/07 10:53:39;;;;;;;4.70;1.13;;;7.50;99.90;;;;;;4992348;28;20426;-73
2022/02/07 10:56:06;;;;;;;7.90;1.37;;;7.40;99.90;;;;;;4992170;28;20410;-72
2022/02/07 10:58:32;;;;;;;3.00;0.70;;;7.40;99.90;;;;;;4993129;28;20446;-74
2022/02/07 11:01:06;;;;;;;2.67;1.20;;;7.60;99.90;;;;;;4992687;28;20550;-73
2022/02/07 11:03:38;;;;;;;3.87;1.20;;;7.80;99.90;;;;;;4992173;28;20418;-73
2022/02/07 11:06:06;;;;;;;2.53;0.83;;;7.80;99.90;;;;;;4992420;28;20904;-73
2022/02/07 11:08:45;;;;;;;6.87;1.10;;;7.50;99.90;;;;;;4992160;28;20412;-73
2022/02/07 11:11:37;;;;;;;4.63;1.10;;;7.40;99.90;;;;;;4991892;28;20538;-72
2022/02/07 11:19:53;;;;;;;3.90;1.30;;;6.70;99.90;;;;;;4992036;28;20447;-73
2022/02/07 11:25:11;;;;;;;4.60;1.10;;;6.40;99.90;;;;;;4991330;28;20430;-72
2022/02/07 11:27:48;;;;;;;5.63;1.07;;;6.30;99.90;;;;;;4996560;28;20417;-73
2022/02/07 11:30:16;;;;;;;6.77;2.20;;;6.20;99.90;;;;;;4996361;28;20416;-73
2022/02/07 11:32:49;;;;;;;2.30;0.70;;;6.00;99.90;;;;;;4995636;28;20466;-74
2022/02/07 11:35:23;;;;;;;2.23;0.90;;;5.90;99.90;;;;;;4995886;28;20772;-73
2022/02/07 11:37:52;;;;;;;4.60;1.00;;;5.70;99.90;;;;;;4995489;28;20423;-73
2022/02/07 11:40:35;;;;;;;4.90;1.60;;;5.60;99.90;;;;;;4988832;28;20451;-73
2022/02/07 11:43:16;;;;;;;4.00;0.90;;;5.50;99.90;;;;;;4991513;28;20398;-72
2022/02/07 11:45:50;;;;;;;6.87;1.23;;;5.50;99.90;;;;;;4995846;28;20411;-73
2022/02/07 11:48:25;;;;;;;2.20;1.17;;;5.50;99.90;;;;;;4990922;28;20433;-73
2022/02/07 11:50:59;;;;;;;6.90;1.70;;;5.50;99.90;;;;;;4984849;28;20827;-72
2022/02/07 11:53:33;;;;;;;9.53;0.83;;;5.50;99.90;;;;;;4984732;28;20444;-73
2022/02/07 11:56:44;;;;;;;2.03;0.70;;;5.50;99.90;;;;;;4983957;28;20855;-73
2022/02/07 11:59:38;;;;;;;3.70;0.93;;;5.50;99.90;;;;;;4979495;28;20420;-72
2022/02/07 12:02:15;;;;;;;11.30;1.27;;;5.50;99.90;;;;;;4990337;28;20906;-73
2022/02/07 12:04:46;;;;;;;6.70;0.90;;;5.50;99.90;;;;;;4991560;28;20531;-72
2022/02/07 12:07:11;;;;;;;3.27;0.90;;;5.50;99.90;;;;;;4991474;28;20421;-73
2022/02/07 12:09:39;;;;;;;7.23;1.47;;;5.50;99.90;;;;;;4992521;28;20381;-73
2022/02/07 12:12:25;;;;;;;3.73;1.17;;;5.50;99.90;;;;;;4990822;28;20209;-72
2022/02/07 12:14:51;;;;;;;10.23;1.47;;;5.50;99.90;;;;;;4989287;28;20597;-73
2022/02/07 12:17:38;;;;;;;5.17;1.07;;;5.40;99.90;;;;;;4985671;28;20922;-72
2022/02/07 12:20:05;;;;;;;1.97;1.10;;;5.40;99.90;;;;;;4981264;28;20463;-71
2022/02/07 12:22:49;;;;;;;4.83;0.90;;;5.50;99.90;;;;;;4982987;28;20450;-73
2022/02/07 12:25:46;;;;;;;7.90;1.13;;;5.50;99.90;;;;;;4984858;28;20406;-72
2022/02/07 12:28:17;;;;;;;6.87;0.80;;;5.50;99.90;;;;;;4992092;28;20428;-72
2022/02/07 12:31:09;;;;;;;3.73;1.17;;;5.50;99.90;;;;;;4980183;28;20431;-73
2022/02/07 12:33:36;;;;;;;7.73;1.60;;;5.50;99.90;;;;;;4974434;28;20966;-72
2022/02/07 12:36:04;;;;;;;7.80;1.10;;;5.60;99.90;;;;;;4988517;28;20437;-72
2022/02/07 12:38:33;;;;;;;7.23;0.90;;;5.60;99.90;;;;;;4989522;28;20498;-71
2022/02/07 12:41:00;;;;;;;4.60;1.00;;;5.60;99.90;;;;;;4988272;28;20600;-74
2022/02/07 12:43:26;;;;;;;4.50;1.00;;;5.60;99.90;;;;;;4990174;28;20419;-72
2022/02/07 12:45:52;;;;;;;4.00;1.10;;;5.60;99.90;;;;;;4991931;28;20422;-72
2022/02/07 12:48:24;;;;;;;9.20;1.33;;;5.70;99.90;;;;;;4991168;28;20442;-71
2022/02/07 12:50:52;;;;;;;2.30;0.90;;;5.80;99.90;;;;;;4990471;28;20437;-72
2022/02/07 12:53:20;;;;;;;4.13;1.20;;;5.80;99.90;;;;;;4972686;28;20484;-72
2022/02/07 12:55:55;;;;;;;6.57;1.87;;;5.90;99.90;;;;;;4980503;28;20426;-72
2022/02/07 12:58:43;;;;;;;7.90;1.77;;;5.90;99.90;;;;;;4987629;28;21305;-72
2022/02/07 13:01:30;;;;;;;7.07;1.63;;;6.00;99.90;;;;;;4989540;28;20478;-72
2022/02/07 13:04:03;;;;;;;5.17;1.27;;;5.90;99.90;;;;;;4988270;28;20481;-72
2022/02/07 13:06:35;;;;;;;3.73;1.47;;;5.80;99.90;;;;;;4990945;28;20400;-72
2022/02/07 13:09:33;;;;;;;5.13;1.23;;;5.60;99.90;;;;;;4989547;28;20467;-72
2022/02/07 13:14:48;;;;;;;6.30;1.77;;;5.60;99.90;;;;;;4990835;28;20507;-72
2022/02/07 13:17:15;;;;;;;3.53;1.93;;;5.50;99.90;;;;;;4991327;28;20427;-71
2022/02/07 13:19:43;;;;;;;4.37;1.67;;;5.50;99.90;;;;;;4989159;28;20430;-73
2022/02/07 13:22:11;;;;;;;10.30;2.30;;;5.50;99.90;;;;;;4989085;28;20499;-74
2022/02/07 13:24:38;;;;;;;7.73;1.87;;;5.60;99.90;;;;;;4987928;28;20432;-72
2022/02/07 13:27:08;;;;;;;3.20;1.43;;;5.60;99.90;;;;;;4990881;28;20795;-72
2022/02/07 13:29:44;;;;;;;5.50;1.40;;;5.60;99.90;;;;;;4991263;28;20837;-71
2022/02/07 13:32:12;;;;;;;9.77;1.27;;;5.50;99.90;;;;;;4990644;28;20467;-71
2022/02/07 13:34:39;;;;;;;6.43;1.30;;;5.60;99.90;;;;;;4990180;28;20430;-72
2022/02/07 13:37:07;;;;;;;1.90;1.60;;;5.70;99.90;;;;;;4990120;28;20437;-72
2022/02/07 13:39:59;;;;;;;10.60;1.43;;;5.80;99.90;;;;;;4991859;28;20988;-72
2022/02/07 13:42:31;;;;;;;5.67;1.63;;;5.70;99.90;;;;;;4990568;28;21070;-72
2022/02/07 13:45:07;;;;;;;5.13;1.23;;;5.70;99.90;;;;;;4989761;28;20984;-72
2022/02/07 13:47:34;;;;;;;6.80;1.20;;;5.90;99.90;;;;;;4989846;28;20475;-72
2022/02/07 13:50:09;;;;;;;3.57;1.00;;;5.90;99.90;;;;;;4990268;28;20980;-72
2022/02/07 13:52:41;;;;;;;4.20;1.00;;;6.00;99.90;;;;;;4990071;28;20444;-73
2022/02/07 13:55:13;;;;;;;8.80;1.30;;;6.20;99.90;;;;;;4989076;28;20395;-75
2022/02/07 13:58:03;;;;;;;1.83;0.97;;;6.40;99.90;;;;;;4987995;28;20456;-72
2022/02/07 14:00:41;;;;;;;7.63;1.87;;;6.60;99.90;;;;;;4970115;28;20486;-73
2022/02/07 14:03:13;;;;;;;1.40;0.80;;;6.60;99.90;;;;;;4988804;28;20466;-71
2022/02/07 14:05:44;;;;;;;2.57;1.10;;;6.70;99.90;;;;;;4989643;28;20425;-72
2022/02/07 14:08:12;;;;;;;5.30;1.17;;;6.80;99.90;;;;;;4989798;28;20493;-72
2022/02/07 14:10:39;;;;;;;2.70;0.73;;;6.70;99.90;;;;;;4991931;28;20811;-72
2022/02/07 14:13:06;;;;;;;2.20;0.80;;;6.60;99.90;;;;;;4992367;28;21046;-72
2022/02/07 14:15:33;;;;;;;7.17;2.03;;;6.50;99.90;;;;;;4992699;28;20873;-72
2022/02/07 14:18:02;;;;;;;2.50;1.33;;;6.40;99.90;;;;;;4992633;28;20818;-72
2022/02/07 14:20:31;;;;;;;4.77;1.30;;;6.40;99.90;;;;;;4992399;28;20480;-73
2022/02/07 14:22:56;;;;;;;7.50;1.27;;;6.40;99.90;;;;;;4991100;28;20442;-72
2022/02/07 14:25:29;;;;;;;3.50;1.03;;;6.20;99.90;;;;;;4992258;28;20460;-71
2022/02/07 14:27:56;;;;;;;7.10;1.30;;;6.10;99.90;;;;;;4992566;28;20256;-71
2022/02/07 14:30:24;;;;;;;3.43;1.23;;;6.10;99.90;;;;;;4992154;28;20446;-77
2022/02/07 14:32:50;;;;;;;2.60;0.80;;;6.30;99.90;;;;;;4992223;28;20448;-75
2022/02/07 14:35:16;;;;;;;6.23;1.37;;;6.40;99.90;;;;;;4992394;28;20521;-72
2022/02/07 14:37:41;;;;;;;3.37;1.00;;;6.50;99.90;;;;;;4992399;28;20442;-72
2022/02/07 14:40:08;;;;;;;1.90;1.27;;;6.40;99.90;;;;;;4991840;28;20250;-72
2022/02/07 14:42:33;;;;;;;10.40;1.30;;;6.40;99.90;;;;;;4992030;28;20253;-73
2022/02/07 14:45:13;;;;;;;4.03;1.23;;;6.50;99.90;;;;;;4991721;28;20878;-72
2022/02/07 14:47:50;;;;;;;5.30;1.23;;;6.40;99.90;;;;;;4992212;28;20222;-72
2022/02/07 14:50:19;;;;;;;3.23;1.10;;;6.20;99.90;;;;;;4991662;28;20453;-73
2022/02/07 14:52:45;;;;;;;2.70;1.17;;;6.20;99.90;;;;;;4991908;28;20805;-73
2022/02/07 14:55:10;;;;;;;5.33;1.50;;;6.10;99.90;;;;;;4991728;28;20543;-73
2022/02/07 14:57:36;;;;;;;4.30;1.50;;;6.10;99.90;;;;;;4991944;28;20209;-73
2022/02/07 15:00:17;;;;;;;4.30;1.60;;;6.00;99.90;;;;;;4991468;28;20260;-72
2022/02/07 15:02:45;;;;;;;6.37;1.60;;;5.90;99.90;;;;;;4992019;28;20494;-73
2022/02/07 15:05:11;;;;;;;2.83;1.60;;;5.80;99.90;;;;;;4991640;28;20453;-72
2022/02/07 15:07:37;;;;;;;4.90;1.60;;;5.70;99.90;;;;;;4991939;28;20433;-72
2022/02/07 15:10:05;;;;;;;14.23;1.70;;;5.60;99.90;;;;;;4991554;28;20556;-73
2022/02/07 15:12:31;;;;;;;7.73;1.63;;;5.50;99.90;;;;;;4990473;28;20908;-73
2022/02/07 15:14:58;;;;;;;7.27;1.83;;;5.40;99.90;;;;;;4991448;28;20445;-72
2022/02/07 15:17:28;;;;;;;6.17;1.43;;;5.50;99.90;;;;;;4991493;28;20423;-72
2022/02/07 15:19:58;;;;;;;4.80;1.63;;;5.40;99.90;;;;;;4991703;28;21037;-72
2022/02/07 15:22:24;;;;;;;12.47;2.13;;;5.30;99.90;;;;;;4991415;28;20446;-73
2022/02/07 15:24:51;;;;;;;7.73;1.20;;;5.30;99.90;;;;;;4991700;28;20487;-73
2022/02/07 15:27:17;;;;;;;3.60;1.30;;;5.30;99.90;;;;;;4991500;28;20437;-72
2022/02/07 15:29:44;;;;;;;1.90;1.53;;;5.20;99.90;;;;;;4991591;28;20428;-72
2022/02/07 15:32:22;;;;;;;6.40;1.43;;;5.20;99.90;;;;;;4991107;28;20830;-72
2022/02/07 15:34:55;;;;;;;3.80;1.97;;;5.00;99.90;;;;;;4990654;28;20457;-72
2022/02/07 15:37:21;;;;;;;3.10;1.70;;;5.00;99.90;;;;;;4991652;28;20437;-72
2022/02/07 15:39:47;;;;;;;9.60;1.57;;;4.90;99.90;;;;;;4991512;28;20443;-73
2022/02/07 15:42:13;;;;;;;9.73;1.73;;;4.90;99.90;;;;;;4989917;28;20420;-72
2022/02/07 15:44:39;;;;;;;6.43;1.77;;;4.80;99.90;;;;;;4990368;28;20180;-72
2022/02/07 15:47:05;;;;;;;7.80;1.70;;;4.80;99.90;;;;;;4991762;28;20418;-73
2022/02/07 15:49:31;;;;;;;5.23;1.37;;;4.80;99.90;;;;;;4991528;28;20295;-73
2022/02/07 15:51:56;;;;;;;8.33;2.07;;;4.80;99.90;;;;;;4991550;28;21019;-73
2022/02/07 15:54:22;;;;;;;8.47;3.43;;;4.70;99.90;;;;;;4981529;28;20564;-72
2022/02/07 15:56:47;;;;;;;7.57;2.13;;;4.70;99.90;;;;;;4980347;28;20180;-73
2022/02/07 15:59:13;;;;;;;3.30;1.50;;;4.60;99.90;;;;;;4981604;28;20375;-73
2022/02/07 16:01:38;;;;;;;5.23;1.53;;;4.60;99.90;;;;;;4981536;28;20218;-72
2022/02/07 16:04:04;;;;;;;5.43;1.97;;;4.60;99.90;;;;;;4979926;28;20212;-72
2022/02/07 16:06:29;;;;;;;6.73;1.97;;;4.60;99.90;;;;;;4972078;28;20215;-73
2022/02/07 16:08:55;;;;;;;6.20;1.40;;;4.50;99.90;;;;;;4974051;28;20181;-73
2022/02/07 16:11:21;;;;;;;5.03;1.67;;;4.50;99.90;;;;;;4974121;28;20255;-73
2022/02/07 16:13:52;;;;;;;2.10;1.50;;;4.50;99.90;;;;;;4974824;28;20191;-73
2022/02/07 16:16:18;;;;;;;3.13;1.27;;;4.40;99.90;;;;;;4975361;28;20219;-73
2022/02/07 16:18:44;;;;;;;6.50;1.50;;;4.40;99.90;;;;;;4990897;28;20451;-70
2022/02/07 16:21:10;;;;;;;10.27;1.80;;;4.40;99.90;;;;;;4994500;28;20471;-73
2022/02/07 16:23:36;;;;;;;3.03;1.40;;;4.40;99.90;;;;;;4994479;28;20191;-73
2022/02/07 16:26:03;;;;;;;3.27;1.33;;;4.40;99.90;;;;;;4994719;28;20390;-73
2022/02/07 16:28:29;;;;;;;11.93;2.63;;;4.30;99.90;;;;;;4994790;28;20189;-74
2022/02/07 16:30:54;;;;;;;8.63;1.70;;;4.30;99.90;;;;;;4994321;28;20437;-73
2022/02/07 16:33:20;;;;;;;5.30;1.53;;;4.30;99.90;;;;;;4994459;28;20198;-72
2022/02/07 16:35:46;;;;;;;11.73;1.97;;;4.20;99.90;;;;;;4994702;28;20210;-72
2022/02/07 16:38:15;;;;;;;7.40;2.20;;;4.20;99.90;;;;;;4993737;28;20235;-72
2022/02/07 16:40:43;;;;;;;8.03;2.03;;;4.20;99.90;;;;;;4994301;28;20877;-73
2022/02/07 16:43:09;;;;;;;8.20;2.33;;;4.10;99.90;;;;;;4994172;28;20790;-73
2022/02/07 16:48:11;;;;;;;3.10;1.67;;;4.00;99.90;;;;;;4987895;28;20188;-73
2022/02/07 16:50:37;;;;;;;6.20;2.53;;;4.00;99.90;;;;;;4986853;28;20418;-73
2022/02/07 16:53:03;;;;;;;7.20;2.17;;;3.90;99.90;;;;;;4984665;28;20480;-74
2022/02/07 16:55:28;;;;;;;8.63;2.50;;;3.90;99.90;;;;;;4984468;28;20230;-75
2022/02/07 16:57:54;;;;;;;8.33;3.30;;;3.90;99.90;;;;;;4977444;28;20218;-77
2022/02/07 17:00:20;;;;;;;9.57;3.50;;;3.80;99.90;;;;;;4976276;28;20339;-76
2022/02/07 17:02:47;;;;;;;6.57;3.10;;;3.80;99.90;;;;;;4974821;28;20439;-76
2022/02/07 17:05:12;;;;;;;6.57;3.00;;;3.70;99.90;;;;;;4974825;28;20900;-76
2022/02/07 17:07:38;;;;;;;7.40;1.93;;;3.70;99.90;;;;;;4973938;28;20497;-75
2022/02/07 17:10:04;;;;;;;6.20;2.80;;;3.60;99.90;;;;;;4972445;28;20180;-76
2022/02/07 17:12:30;;;;;;;7.37;2.30;;;3.60;99.90;;;;;;4982421;28;20642;-75
2022/02/07 17:14:56;;;;;;;15.83;3.57;;;3.60;99.90;;;;;;4986660;28;20426;-76
2022/02/07 17:17:25;;;;;;;10.73;3.07;;;3.50;99.90;;;;;;4994620;28;20430;-77
2022/02/07 17:19:51;;;;;;;7.53;2.57;;;3.50;99.90;;;;;;4993172;28;20172;-76
2022/02/07 17:22:16;;;;;;;3.20;2.07;;;3.50;99.90;;;;;;4993766;28;20560;-76
2022/02/07 17:24:42;;;;;;;5.20;2.60;;;3.50;99.90;;;;;;4993989;28;20199;-76
2022/02/07 17:27:07;;;;;;;8.10;2.50;;;3.50;99.90;;;;;;4993886;28;20184;-76
2022/02/07 17:29:34;;;;;;;3.03;1.43;;;3.50;99.90;;;;;;4983463;28;20242;-76
2022/02/07 17:31:59;;;;;;;8.93;1.80;;;3.50;99.90;;;;;;4974736;28;20211;-76
2022/02/07 17:34:25;;;;;;;15.63;2.20;;;3.50;99.90;;;;;;4974357;28;20932;-76
2022/02/07 17:36:50;;;;;;;9.47;2.60;;;3.50;99.90;;;;;;4974826;28;20181;-76
2022/02/07 17:39:16;;;;;;;11.43;4.83;;;3.50;99.90;;;;;;4972456;28;20179;-76
2022/02/07 17:41:42;;;;;;;9.47;3.00;;;3.40;99.90;;;;;;4973152;28;20231;-76
2022/02/07 17:44:11;;;;;;;12.00;2.67;;;3.40;99.90;;;;;;4972685;28;20414;-76
2022/02/07 17:46:37;;;;;;;6.73;1.93;;;3.50;99.90;;;;;;4989062;28;20861;-76
2022/02/07 17:49:03;;;;;;;8.77;2.40;;;3.50;99.90;;;;;;4992385;28;20420;-76
2022/02/07 17:51:31;;;;;;;10.27;2.33;;;3.60;99.90;;;;;;4992605;28;20481;-76
2022/02/07 17:53:58;;;;;;;4.53;2.10;;;3.50;99.90;;;;;;4992611;28;20187;-76
2022/02/07 17:56:24;;;;;;;5.90;2.17;;;3.60;99.90;;;;;;4993525;28;20381;-76
2022/02/07 17:58:49;;;;;;;5.43;1.90;;;3.60;99.90;;;;;;4993629;28;20567;-76
2022/02/07 18:01:15;;;;;;;3.97;1.53;;;3.60;99.90;;;;;;4976245;28;20652;-75
2022/02/07 18:03:41;;;;;;;3.40;1.60;;;3.60;99.90;;;;;;4984417;28;20218;-76
2022/02/07 18:06:07;;;;;;;6.17;1.80;;;3.60;99.90;;;;;;4998171;28;20306;-75
2022/02/07 18:08:33;;;;;;;11.03;2.63;;;3.60;99.90;;;;;;4973388;28;20262;-76
2022/02/07 18:10:58;;;;;;;6.47;2.03;;;3.50;99.90;;;;;;4972998;28;20220;-76
2022/02/07 18:13:24;;;;;;;13.30;3.10;;;3.50;99.90;;;;;;4972898;28;20851;-76
2022/02/07 18:15:52;;;;;;;6.80;1.90;;;3.50;99.90;;;;;;4973366;28;20354;-76
2022/02/07 18:18:18;;;;;;;4.90;2.03;;;3.50;99.90;;;;;;4973278;28;20450;-76
2022/02/07 18:20:47;;;;;;;6.20;2.00;;;3.40;99.90;;;;;;4981368;28;20492;-75
2022/02/07 18:23:14;;;;;;;7.23;1.60;;;3.40;99.90;;;;;;4986803;28;20565;-76
2022/02/07 18:25:42;;;;;;;6.97;2.60;;;3.40;99.90;;;;;;4991019;28;20558;-76
2022/02/07 18:28:13;;;;;;;4.73;1.60;;;3.30;99.90;;;;;;4992052;28;20425;-75
2022/02/07 18:30:39;;;;;;;5.17;2.17;;;3.30;99.90;;;;;;4991662;28;20493;-76
2022/02/07 18:33:14;;;;;;;8.80;1.93;;;3.30;99.90;;;;;;4986749;28;20458;-77
2022/02/07 18:35:48;;;;;;;8.10;1.63;;;3.30;99.90;;;;;;4992341;28;20914;-76